Time;durP1;ratioP1;P1;durP2;ratioP2;P2;SDS_P1;SDS_P2;PMS_P1;PMS_P2;Temp;Humidity;BMP_temperature;BMP_pressure;BME280_temperature;BME280_humidity;BME280_pressure;Samples;Min_cycle;Max_cycle;Signal;HPM_P1;HPM_P2
2023/03/15 00:02:51;;;;;;;15.27;7.78;;;;;;;1.45;100.00;101026.69;10469651;28;20117;-76
2023/03/15 00:07:52;;;;;;;15.93;7.22;;;;;;;1.48;100.00;101026.97;10485371;28;20131;-76
2023/03/15 00:12:52;;;;;;;13.68;6.15;;;;;;;1.48;100.00;101018.28;10485375;28;20064;-76
2023/03/15 00:17:53;;;;;;;15.02;7.30;;;;;;;1.49;100.00;101038.16;10483570;28;20174;-76
2023/03/15 00:22:53;;;;;;;27.20;7.90;;;;;;;1.49;100.00;101045.91;10484705;28;20060;-76
2023/03/15 00:27:54;;;;;;;17.05;7.63;;;;;;;1.55;100.00;101054.16;10464081;28;20071;-76
2023/03/15 00:32:54;;;;;;;13.00;6.68;;;;;;;1.60;100.00;101058.06;10437000;28;20455;-76
2023/03/15 00:37:55;;;;;;;12.95;6.93;;;;;;;1.65;100.00;101058.47;10443047;28;20122;-76
2023/03/15 00:42:56;;;;;;;13.15;6.97;;;;;;;1.66;100.00;101049.97;10468538;28;20426;-76
2023/03/15 00:47:56;;;;;;;15.02;7.97;;;;;;;1.68;100.00;101059.63;10479788;28;20041;-75
2023/03/15 00:52:57;;;;;;;16.02;6.93;;;;;;;1.72;100.00;101059.13;10456226;28;20060;-75
2023/03/15 00:57:57;;;;;;;16.33;8.05;;;;;;;1.73;100.00;101068.66;10440132;28;20579;-76
2023/03/15 01:02:58;;;;;;;14.77;8.82;;;;;;;1.68;100.00;101067.38;10444512;28;20049;-75
2023/03/15 01:07:58;;;;;;;13.98;8.77;;;;;;;1.63;100.00;101067.75;10467674;28;20119;-75
2023/03/15 01:12:59;;;;;;;18.05;8.82;;;;;;;1.51;100.00;101063.34;10482372;28;20064;-76
2023/03/15 01:17:59;;;;;;;12.30;5.88;;;;;;;1.37;100.00;101068.97;10480430;28;20469;-75
2023/03/15 01:23:00;;;;;;;13.80;6.43;;;;;;;1.26;100.00;101066.34;10463645;28;20033;-76
2023/03/15 01:28:00;;;;;;;7.80;4.78;;;;;;;1.11;100.00;101073.63;10438832;28;20112;-76
2023/03/15 01:33:01;;;;;;;10.13;5.70;;;;;;;1.08;100.00;101075.03;10451790;28;20457;-75
2023/03/15 01:38:01;;;;;;;13.38;6.38;;;;;;;0.97;100.00;101084.38;10483619;28;20079;-76
2023/03/15 01:43:04;;;;;;;12.38;6.55;;;;;;;0.86;100.00;101083.41;10476745;28;20140;-76
2023/03/15 01:48:05;;;;;;;11.43;6.30;;;;;;;0.79;100.00;101087.09;10483041;28;20037;-76
2023/03/15 01:53:05;;;;;;;10.98;6.80;;;;;;;0.75;100.00;101089.28;10435811;28;20449;-76
2023/03/15 01:58:06;;;;;;;9.75;6.57;;;;;;;0.77;100.00;101091.22;10440368;28;20123;-75
2023/03/15 02:03:15;;;;;;;13.75;8.25;;;;;;;0.70;100.00;101082.03;10436170;28;20064;-76
2023/03/15 02:08:16;;;;;;;9.15;6.15;;;;;;;0.69;100.00;101085.38;10439555;28;20041;-76
2023/03/15 02:13:18;;;;;;;12.48;6.80;;;;;;;0.64;100.00;101101.16;10451814;28;20040;-76
2023/03/15 02:18:19;;;;;;;13.13;8.75;;;;;;;0.67;100.00;101104.03;10439704;28;20029;-76
2023/03/15 02:23:22;;;;;;;11.90;6.00;;;;;;;0.72;100.00;101100.19;10441643;28;20036;-76
2023/03/15 02:28:22;;;;;;;14.30;7.63;;;;;;;0.71;100.00;101099.31;10456476;28;20029;-76
2023/03/15 02:33:26;;;;;;;11.15;5.68;;;;;;;0.70;100.00;101094.91;10471757;28;20089;-76
2023/03/15 02:38:26;;;;;;;10.60;6.38;;;;;;;0.74;100.00;101101.25;10462739;28;20119;-76
2023/03/15 02:43:27;;;;;;;6.82;5.78;;;;;;;0.70;100.00;101104.31;10449828;28;20054;-76
2023/03/15 02:48:29;;;;;;;9.63;6.10;;;;;;;0.71;100.00;101113.84;10467177;28;20048;-76
2023/03/15 02:53:30;;;;;;;9.30;5.40;;;;;;;0.65;100.00;101110.72;10472408;28;20033;-76
2023/03/15 02:58:31;;;;;;;8.48;5.68;;;;;;;0.63;100.00;101130.28;10461598;28;20442;-76
2023/03/15 03:03:31;;;;;;;10.05;7.20;;;;;;;0.64;100.00;101137.22;10488651;28;20115;-76
2023/03/15 03:08:32;;;;;;;10.10;6.97;;;;;;;0.58;100.00;101145.31;10483328;28;20388;-76
2023/03/15 03:13:32;;;;;;;11.82;7.97;;;;;;;0.47;100.00;101159.75;10486986;28;20127;-76
2023/03/15 03:18:34;;;;;;;10.88;7.47;;;;;;;0.29;100.00;101164.13;10486665;28;20036;-75
2023/03/15 03:23:35;;;;;;;11.45;7.88;;;;;;;-0.04;100.00;101167.91;10465863;28;20048;-75
2023/03/15 03:28:35;;;;;;;9.38;6.65;;;;;;;-0.24;100.00;101178.84;10445899;28;20044;-76
2023/03/15 03:33:36;;;;;;;10.35;7.40;;;;;;;-0.35;100.00;101196.72;10447391;28;20055;-75
2023/03/15 03:38:36;;;;;;;14.55;10.73;;;;;;;-0.26;100.00;101198.38;10472226;28;20041;-75
2023/03/15 03:43:37;;;;;;;11.07;8.07;;;;;;;-0.14;100.00;101206.38;10446757;28;20033;-75
2023/03/15 03:48:37;;;;;;;13.30;9.48;;;;;;;-0.13;100.00;101215.91;10475179;28;20580;-76
2023/03/15 03:53:38;;;;;;;13.57;9.75;;;;;;;-0.18;100.00;101211.25;10519911;27;20127;-75
2023/03/15 03:58:38;;;;;;;13.13;8.93;;;;;;;-0.26;100.00;101219.88;10484104;28;20075;-74
2023/03/15 04:03:39;;;;;;;17.63;9.93;;;;;;;-0.26;100.00;101217.31;10520322;28;20119;-75
2023/03/15 04:08:42;;;;;;;16.15;11.65;;;;;;;-0.11;100.00;101210.16;10499381;28;20461;-75
2023/03/15 04:13:44;;;;;;;14.73;10.15;;;;;;;-0.13;100.00;101218.50;10438029;28;20041;-75
2023/03/15 04:18:44;;;;;;;13.65;9.35;;;;;;;-0.42;100.00;101214.91;10406221;28;20481;-75
2023/03/15 04:23:45;;;;;;;14.52;8.77;;;;;;;-0.67;100.00;101221.91;10444816;28;20076;-75
2023/03/15 04:28:45;;;;;;;12.37;8.37;;;;;;;-0.91;100.00;101234.16;10471610;28;20128;-75
2023/03/15 04:33:46;;;;;;;16.88;13.25;;;;;;;-0.94;100.00;101241.56;10445295;28;20148;-75
2023/03/15 04:38:47;;;;;;;13.38;9.85;;;;;;;-1.00;100.00;101246.06;10446534;28;20488;-75
2023/03/15 04:43:47;;;;;;;20.60;12.87;;;;;;;-1.13;100.00;101254.19;10426178;28;20116;-75
2023/03/15 04:48:48;;;;;;;20.27;13.13;;;;;;;-1.26;100.00;101264.91;10450603;28;20036;-74
2023/03/15 04:53:48;;;;;;;21.08;14.98;;;;;;;-1.34;100.00;101262.47;10444244;28;20106;-74
2023/03/15 04:58:49;;;;;;;20.83;13.85;;;;;;;-1.36;100.00;101278.47;10443063;28;20065;-76
2023/03/15 05:03:49;;;;;;;29.10;19.23;;;;;;;-1.46;100.00;101280.84;10447880;28;20044;-75
2023/03/15 05:08:50;;;;;;;29.40;17.00;;;;;;;-1.41;100.00;101288.28;10450182;28;20072;-75
2023/03/15 05:13:50;;;;;;;27.37;17.20;;;;;;;-1.53;100.00;101293.06;10452417;28;20072;-74
2023/03/15 05:18:52;;;;;;;26.97;18.53;;;;;;;-1.72;100.00;101297.03;10433498;28;20047;-74
2023/03/15 05:23:53;;;;;;;31.88;20.00;;;;;;;-1.59;100.00;101306.94;10445229;28;20051;-74
2023/03/15 05:28:54;;;;;;;24.77;16.80;;;;;;;-1.72;100.00;101309.88;10439218;28;20057;-75
2023/03/15 05:33:58;;;;;;;35.53;18.80;;;;;;;-1.81;100.00;101321.00;10474052;28;20052;-75
2023/03/15 05:38:59;;;;;;;27.17;17.15;;;;;;;-1.94;100.00;101326.53;10438345;28;20416;-75
2023/03/15 05:43:59;;;;;;;29.23;19.80;;;;;;;-2.09;100.00;101333.50;10451308;28;20044;-75
2023/03/15 05:49:00;;;;;;;34.83;21.67;;;;;;;-2.29;100.00;101339.09;10474024;28;20061;-75
2023/03/15 05:54:00;;;;;;;32.57;19.47;;;;;;;-2.38;100.00;101349.25;10471314;28;20069;-75
2023/03/15 05:59:01;;;;;;;30.80;21.80;;;;;;;-2.43;100.00;101347.84;10456059;28;20049;-75
2023/03/15 06:04:02;;;;;;;37.97;24.90;;;;;;;-2.44;100.00;101343.47;10459156;28;20093;-75
2023/03/15 06:09:03;;;;;;;40.20;24.83;;;;;;;-2.41;100.00;101354.06;10434123;28;20615;-77
2023/03/15 06:14:03;;;;;;;34.90;25.90;;;;;;;-2.32;100.00;101358.34;10440947;28;20146;-78
2023/03/15 06:19:04;;;;;;;42.57;28.87;;;;;;;-2.19;100.00;101369.16;10463475;28;20493;-78
2023/03/15 06:24:05;;;;;;;43.47;26.23;;;;;;;-2.01;100.00;101362.53;10451794;28;20088;-79
2023/03/15 06:29:06;;;;;;;39.70;26.00;;;;;;;-1.94;100.00;101374.34;10452327;28;20040;-76
2023/03/15 06:34:07;;;;;;;48.83;30.07;;;;;;;-1.87;100.00;101392.19;10463143;28;20778;-75
2023/03/15 06:39:10;;;;;;;52.05;32.83;;;;;;;-1.69;100.00;101389.75;10456014;28;20048;-75
2023/03/15 06:44:10;;;;;;;49.63;31.90;;;;;;;-1.29;100.00;101398.16;10451836;28;20040;-76
2023/03/15 06:49:11;;;;;;;45.07;27.50;;;;;;;-0.92;100.00;101417.38;10396521;28;20402;-77
2023/03/15 06:54:11;;;;;;;51.47;33.35;;;;;;;-0.03;100.00;101435.69;10470698;28;20139;-76
2023/03/15 06:59:12;;;;;;;42.40;27.30;;;;;;;0.71;100.00;101434.25;10481768;28;20163;-77
2023/03/15 07:04:12;;;;;;;41.33;28.60;;;;;;;1.28;100.00;101445.56;10473579;28;20100;-77
2023/03/15 07:09:13;;;;;;;31.83;19.38;;;;;;;2.60;100.00;101447.19;10414999;28;20112;-77
2023/03/15 07:14:13;;;;;;;16.63;13.25;;;;;;;3.76;100.00;101451.97;10441598;28;20467;-76
2023/03/15 07:19:13;;;;;;;13.68;10.43;;;;;;;4.81;100.00;101446.72;10444673;28;20119;-76
2023/03/15 07:24:14;;;;;;;12.57;8.70;;;;;;;5.65;100.00;101449.69;10455759;28;20066;-76
2023/03/15 07:29:14;;;;;;;9.20;8.02;;;;;;;6.04;100.00;101435.34;10440959;28;20490;-76
2023/03/15 07:34:15;;;;;;;10.75;7.47;;;;;;;6.64;100.00;101453.59;10472586;28;20045;-76
2023/03/15 07:39:16;;;;;;;14.95;9.13;;;;;;;7.13;100.00;101464.00;10438850;28;20392;-76
2023/03/15 07:44:16;;;;;;;12.43;8.48;;;;;;;7.01;100.00;101467.56;10463141;28;20116;-77
2023/03/15 07:49:17;;;;;;;10.77;7.50;;;;;;;6.98;100.00;101476.84;10429744;28;20251;-78
2023/03/15 07:54:18;;;;;;;14.75;9.30;;;;;;;7.12;100.00;101489.16;10406442;28;20121;-77
2023/03/15 07:59:18;;;;;;;15.45;10.57;;;;;;;7.27;100.00;101489.34;10426762;28;20032;-77
2023/03/15 08:04:20;;;;;;;12.70;7.80;;;;;;;6.47;100.00;101495.75;10442123;28;20139;-77
2023/03/15 08:09:20;;;;;;;14.10;9.13;;;;;;;6.08;100.00;101507.56;10414296;28;20057;-77
2023/03/15 08:14:21;;;;;;;13.93;7.55;;;;;;;6.08;100.00;101520.56;10442059;28;20538;-79
2023/03/15 08:19:21;;;;;;;12.57;8.32;;;;;;;5.65;100.00;101523.34;10459895;28;20115;-78
2023/03/15 08:24:22;;;;;;;15.07;7.45;;;;;;;5.44;100.00;101533.84;10459852;28;20041;-78
2023/03/15 08:29:22;;;;;;;15.68;8.68;;;;;;;5.58;100.00;101547.91;10457876;28;20487;-77
2023/03/15 08:34:23;;;;;;;11.48;6.60;;;;;;;5.92;100.00;101560.03;10466494;28;20036;-78
2023/03/15 08:39:24;;;;;;;14.82;8.57;;;;;;;5.74;100.00;101569.88;10464245;28;20037;-78
2023/03/15 08:44:24;;;;;;;13.20;8.45;;;;;;;5.69;100.00;101566.03;10471479;28;20124;-79
2023/03/15 08:49:25;;;;;;;11.20;6.80;;;;;;;6.56;100.00;101570.06;10442004;28;20163;-78
2023/03/15 08:54:26;;;;;;;13.20;7.95;;;;;;;6.24;100.00;101565.91;10442606;28;20056;-78
2023/03/15 08:59:26;;;;;;;12.90;8.32;;;;;;;6.14;100.00;101567.81;10443144;28;20039;-78
2023/03/15 09:04:27;;;;;;;11.80;7.20;;;;;;;6.26;100.00;101580.88;10433769;28;20034;-77
2023/03/15 09:09:27;;;;;;;19.08;8.80;;;;;;;5.23;100.00;101589.25;10447625;28;20041;-78
2023/03/15 09:14:28;;;;;;;18.25;8.70;;;;;;;5.04;100.00;101586.81;10442687;28;20532;-76
2023/03/15 09:19:28;;;;;;;18.92;9.35;;;;;;;5.67;100.00;101588.38;10435382;28;20036;-77
2023/03/15 09:24:29;;;;;;;15.25;7.38;;;;;;;6.35;100.00;101588.44;10439986;28;20066;-78
2023/03/15 09:29:29;;;;;;;13.27;5.15;;;;;;;6.89;100.00;101592.50;10447619;28;20043;-78
2023/03/15 09:34:30;;;;;;;12.07;5.10;;;;;;;7.56;100.00;101589.47;10448361;28;20043;-79
2023/03/15 09:39:32;;;;;;;7.30;3.83;;;;;;;7.52;100.00;101603.06;10467016;28;20041;-80
2023/03/15 09:44:47;;;;;;;14.40;4.50;;;;;;;9.39;100.00;101593.06;10433842;28;20526;-79
2023/03/15 09:49:53;;;;;;;11.68;5.40;;;;;;;12.79;93.58;101591.31;10418017;28;20043;-79
2023/03/15 09:54:59;;;;;;;7.57;3.30;;;;;;;15.48;69.51;101576.91;10462061;28;20491;-80
2023/03/15 10:00:00;;;;;;;8.35;3.08;;;;;;;15.01;60.75;101582.97;10492358;28;20485;-80
2023/03/15 10:05:05;;;;;;;8.02;3.13;;;;;;;10.39;69.59;101606.22;10445999;28;20132;-80
2023/03/15 10:10:13;;;;;;;12.13;3.88;;;;;;;8.36;87.58;101614.09;10497569;28;20055;-80
2023/03/15 10:15:25;;;;;;;12.18;5.70;;;;;;;6.78;100.00;101619.41;10494033;28;20111;-79
2023/03/15 10:20:33;;;;;;;5.35;2.47;;;;;;;5.84;100.00;101618.28;10448973;28;20048;-79
2023/03/15 10:25:33;;;;;;;9.93;4.30;;;;;;;6.67;100.00;101617.69;10483724;28;20107;-78
2023/03/15 10:30:35;;;;;;;10.23;2.97;;;;;;;11.69;88.49;101601.34;10505869;28;20049;-79
2023/03/15 10:35:36;;;;;;;;;;;;;;;13.68;68.56;101596.50;10472622;28;20036;-79
2023/03/15 10:40:44;;;;;;;6.60;2.80;;;;;;;15.93;61.03;101597.06;10488865;28;19974;-79
2023/03/15 10:46:03;;;;;;;13.38;5.88;;;;;;;15.93;56.68;101598.00;10475441;28;20057;-80
2023/03/15 10:51:18;;;;;;;8.18;3.55;;;;;;;16.47;53.65;101600.75;10450851;28;20052;-80
2023/03/15 10:56:30;;;;;;;6.63;2.88;;;;;;;11.69;60.21;101620.59;10404459;28;20480;-79
2023/03/15 11:01:34;;;;;;;8.00;3.85;;;;;;;8.59;73.59;101633.97;10429671;28;20086;-78
2023/03/15 11:06:47;;;;;;;7.07;3.38;;;;;;;6.78;96.13;101639.31;10445736;28;20065;-79
2023/03/15 11:11:57;;;;;;;8.02;3.75;;;;;;;6.19;100.00;101647.84;10430010;28;20555;-78
2023/03/15 11:16:57;;;;;;;10.65;3.92;;;;;;;5.85;100.00;101654.78;10446459;28;20056;-79
2023/03/15 11:21:59;;;;;;;7.82;3.00;;;;;;;5.70;100.00;101662.25;10445398;28;20025;-78
2023/03/15 11:27:01;;;;;;;6.80;2.40;;;;;;;5.43;100.00;101663.53;10428522;28;20044;-78
2023/03/15 11:32:10;;;;;;;8.75;4.70;;;;;;;5.17;100.00;101672.69;10428720;28;20374;-79
2023/03/15 11:37:22;;;;;;;7.03;2.33;;;;;;;8.41;100.00;101669.22;10436246;28;20174;-79
2023/03/15 11:42:32;;;;;;;5.27;2.70;;;;;;;14.16;67.85;101664.47;10485840;28;20037;-78
2023/03/15 11:47:40;;;;;;;7.13;2.33;;;;;;;15.47;55.98;101670.06;10486185;28;20469;-79
2023/03/15 11:52:41;;;;;;;2.95;1.60;;;;;;;15.15;53.45;101654.69;10469379;28;20102;-78
2023/03/15 11:57:43;;;;;;;6.22;2.63;;;;;;;16.24;49.51;101646.66;10482932;27;20033;-78
2023/03/15 12:02:51;;;;;;;4.75;1.88;;;;;;;17.80;45.98;101651.84;10485850;28;20146;-79
2023/03/15 12:07:59;;;;;;;3.70;1.85;;;;;;;16.68;43.68;101646.44;10470078;28;20033;-80
2023/03/15 12:13:06;;;;;;;3.30;2.30;;;;;;;12.57;50.94;101655.88;10443936;28;20041;-79
2023/03/15 12:18:12;;;;;;;3.85;2.55;;;;;;;13.97;52.70;101644.28;10444354;28;20052;-79
2023/03/15 12:23:16;;;;;;;2.85;1.63;;;;;;;15.29;52.92;101634.19;10426735;28;20067;-79
2023/03/15 12:28:51;;;;;;;3.75;2.10;;;;;;;16.00;48.10;101639.63;10446356;28;20041;-80
2023/03/15 12:33:53;;;;;;;5.88;2.65;;;;;;;16.13;47.64;101638.31;10444928;28;20132;-78
2023/03/15 12:38:58;;;;;;;;;;;;;;;16.86;44.68;101638.25;10456185;28;20408;-80
2023/03/15 12:44:25;;;;;;;5.03;2.55;;;;;;;16.42;44.07;101635.84;10456737;28;19987;-79
2023/03/15 12:49:25;;;;;;;4.25;2.17;;;;;;;15.81;40.91;101640.59;10446079;28;20045;-79
2023/03/15 12:54:44;;;;;;;2.97;1.73;;;;;;;14.19;44.78;101640.94;10457711;28;20040;-79
2023/03/15 12:59:53;;;;;;;3.03;1.63;;;;;;;9.96;52.72;101653.25;10411875;28;20049;-79
2023/03/15 13:05:21;;;;;;;4.85;1.80;;;;;;;8.56;57.36;101652.03;10419302;28;20039;-78
2023/03/15 13:10:36;;;;;;;2.80;1.80;;;;;;;11.96;50.93;101643.00;10423969;28;20550;-77
2023/03/15 13:15:39;;;;;;;2.58;1.52;;;;;;;12.37;47.54;101646.97;10421666;28;20052;-78
2023/03/15 13:20:41;;;;;;;4.10;1.45;;;;;;;9.64;53.52;101646.88;10425254;28;20404;-78
2023/03/15 13:25:47;;;;;;;3.35;2.15;;;;;;;8.40;56.79;101647.41;10429572;28;20045;-77
2023/03/15 13:30:49;;;;;;;8.43;2.67;;;;;;;8.03;59.08;101651.00;10420579;28;20037;-78
2023/03/15 13:36:02;;;;;;;8.07;2.85;;;;;;;11.97;53.51;101640.44;10433549;28;20045;-78
2023/03/15 13:41:04;;;;;;;4.68;2.13;;;;;;;14.54;48.59;101638.03;10465418;28;20098;-76
2023/03/15 13:46:04;;;;;;;13.85;3.58;;;;;;;16.04;45.30;101634.44;10417322;28;20037;-78
2023/03/15 13:51:25;;;;;;;2.60;1.90;;;;;;;14.83;40.78;101633.16;10435458;28;20041;-79
2023/03/15 13:56:30;;;;;;;10.75;2.10;;;;;;;13.97;43.21;101638.16;10405907;28;20053;-78
2023/03/15 14:01:34;;;;;;;3.42;1.50;;;;;;;13.93;42.60;101640.63;10371506;28;20041;-78
2023/03/15 14:06:34;;;;;;;6.07;2.13;;;;;;;14.10;42.07;101646.66;10439968;28;20030;-78
2023/03/15 14:11:36;;;;;;;2.97;0.90;;;;;;;14.24;38.08;101639.41;10445258;28;20452;-78
2023/03/15 14:16:41;;;;;;;1.52;0.93;;;;;;;13.75;40.35;101647.69;10435023;28;20043;-78
2023/03/15 14:21:43;;;;;;;1.35;0.98;;;;;;;12.86;43.56;101648.59;10422742;28;20071;-79
2023/03/15 14:26:49;;;;;;;4.13;1.80;;;;;;;12.50;46.46;101650.25;10403173;28;20034;-78
2023/03/15 14:31:50;;;;;;;2.67;1.50;;;;;;;12.54;43.57;101652.22;10469264;28;20037;-78
2023/03/15 14:36:52;;;;;;;4.00;1.60;;;;;;;13.63;41.50;101655.88;10473492;28;20430;-79
2023/03/15 14:41:53;;;;;;;4.47;2.10;;;;;;;12.95;41.54;101653.44;10478479;28;20090;-78
2023/03/15 14:46:54;;;;;;;4.10;1.77;;;;;;;12.38;44.69;101654.03;10444253;28;20061;-78
2023/03/15 14:52:00;;;;;;;3.50;1.58;;;;;;;12.02;45.67;101653.88;10411096;28;20042;-81
2023/03/15 14:57:01;;;;;;;1.33;0.90;;;;;;;11.98;42.41;101652.75;10405469;28;20120;-79
2023/03/15 15:02:01;;;;;;;2.22;0.93;;;;;;;12.44;44.18;101659.59;10438305;28;20045;-80
2023/03/15 15:07:02;;;;;;;1.67;0.80;;;;;;;12.89;43.13;101661.91;10415934;28;20076;-80
2023/03/15 15:12:03;;;;;;;1.52;0.82;;;;;;;12.22;43.69;101654.03;10439592;28;20124;-80
2023/03/15 15:17:03;;;;;;;3.00;1.58;;;;;;;11.42;45.28;101651.41;10461974;28;20041;-80
2023/03/15 15:22:04;;;;;;;1.13;0.90;;;;;;;10.67;48.46;101649.75;10437077;28;20539;-79
2023/03/15 15:27:04;;;;;;;2.85;0.93;;;;;;;10.16;49.87;101638.78;10460583;28;20041;-79
2023/03/15 15:32:05;;;;;;;1.15;0.50;;;;;;;10.03;49.59;101630.97;10466278;28;20055;-79
2023/03/15 15:37:10;;;;;;;2.10;0.90;;;;;;;9.65;48.68;101638.22;10474234;28;20051;-78
2023/03/15 15:42:11;;;;;;;1.27;0.70;;;;;;;8.96;52.28;101639.06;10454741;28;20056;-79
2023/03/15 15:47:11;;;;;;;2.03;0.93;;;;;;;8.47;51.55;101635.72;10460926;28;20432;-78
2023/03/15 15:52:12;;;;;;;1.70;0.75;;;;;;;8.37;53.43;101634.16;10402248;28;20128;-78
2023/03/15 15:57:12;;;;;;;2.38;0.98;;;;;;;8.05;52.48;101635.44;10416369;28;20041;-79
2023/03/15 16:02:16;;;;;;;1.38;0.85;;;;;;;7.67;55.98;101631.03;10453575;28;20198;-79
2023/03/15 16:07:16;;;;;;;0.65;0.43;;;;;;;7.38;57.06;101625.53;10455800;28;20045;-79
2023/03/15 16:12:17;;;;;;;0.70;0.40;;;;;;;7.22;55.81;101625.19;10477423;28;20441;-79
2023/03/15 16:17:20;;;;;;;1.80;0.63;;;;;;;7.11;60.99;101629.59;10481530;28;20044;-78
2023/03/15 16:22:21;;;;;;;2.72;1.75;;;;;;;6.97;56.69;101629.47;10433823;28;20061;-78
2023/03/15 16:27:23;;;;;;;3.28;0.80;;;;;;;6.67;59.92;101633.31;10426860;28;20048;-78
2023/03/15 16:32:24;;;;;;;0.93;0.50;;;;;;;6.45;60.46;101637.75;10447235;28;20110;-78
2023/03/15 16:37:25;;;;;;;3.10;1.47;;;;;;;6.28;61.83;101648.56;10440734;28;20045;-78
2023/03/15 16:42:26;;;;;;;2.33;0.97;;;;;;;6.03;66.46;101636.25;10423623;28;20463;-78
2023/03/15 16:47:26;;;;;;;1.02;0.70;;;;;;;5.78;65.99;101648.97;10442879;28;20268;-78
2023/03/15 16:52:27;;;;;;;2.20;0.80;;;;;;;5.54;70.20;101654.03;10407974;28;20049;-78
2023/03/15 16:57:29;;;;;;;1.15;0.52;;;;;;;5.17;76.63;101651.03;10394655;28;20045;-78
2023/03/15 17:02:30;;;;;;;1.27;0.60;;;;;;;4.86;81.74;101654.56;10442766;28;20053;-78
2023/03/15 17:07:32;;;;;;;0.70;0.50;;;;;;;4.66;84.82;101661.59;10428941;28;20116;-78
2023/03/15 17:12:33;;;;;;;1.60;0.70;;;;;;;4.54;90.17;101651.09;10417343;28;20037;-78
2023/03/15 17:17:35;;;;;;;4.20;1.35;;;;;;;4.29;95.88;101665.34;10400466;28;20037;-78
2023/03/15 17:22:35;;;;;;;3.60;1.60;;;;;;;4.10;99.10;101662.06;10450605;28;20041;-79
2023/03/15 17:27:38;;;;;;;2.05;0.80;;;;;;;3.87;98.91;101666.94;10416813;28;20485;-79
2023/03/15 17:32:38;;;;;;;2.17;1.10;;;;;;;3.72;100.00;101666.50;10436682;28;20493;-79
2023/03/15 17:37:43;;;;;;;2.97;1.00;;;;;;;3.56;100.00;101669.41;10438113;28;20124;-79
2023/03/15 17:42:43;;;;;;;2.45;0.82;;;;;;;3.42;100.00;101674.25;10439974;28;20036;-79
2023/03/15 17:47:52;;;;;;;1.45;0.80;;;;;;;3.27;100.00;101676.41;10438908;28;20049;-79
2023/03/15 17:53:05;;;;;;;4.32;1.23;;;;;;;3.12;100.00;101675.91;10413499;28;20504;-79
2023/03/15 17:58:10;;;;;;;2.10;0.93;;;;;;;3.01;100.00;101681.78;10400584;28;20041;-79
2023/03/15 18:03:11;;;;;;;3.95;1.10;;;;;;;2.93;100.00;101679.41;10399567;28;20030;-79
2023/03/15 18:08:13;;;;;;;4.78;1.08;;;;;;;2.83;100.00;101683.59;10417082;28;20033;-79
2023/03/15 18:13:18;;;;;;;2.45;1.45;;;;;;;2.76;100.00;101690.78;10420975;28;20030;-78
2023/03/15 18:18:19;;;;;;;1.65;0.98;;;;;;;2.72;100.00;101701.63;10408991;28;20041;-79
2023/03/15 18:23:19;;;;;;;5.80;1.98;;;;;;;2.65;100.00;101699.22;10377415;28;20887;-79
2023/03/15 18:28:19;;;;;;;4.03;0.98;;;;;;;2.55;100.00;101705.19;10389946;28;20049;-79
2023/03/15 18:33:21;;;;;;;3.08;1.08;;;;;;;2.53;100.00;101708.44;10376143;28;20136;-79
2023/03/15 18:38:21;;;;;;;4.18;0.95;;;;;;;2.52;100.00;101711.78;10414534;28;20037;-79
2023/03/15 18:43:22;;;;;;;8.52;2.22;;;;;;;2.38;100.00;101702.72;10448525;28;20039;-79
2023/03/15 18:48:25;;;;;;;4.00;1.53;;;;;;;2.29;100.00;101701.09;10416741;28;20034;-80
2023/03/15 18:53:26;;;;;;;7.00;2.33;;;;;;;2.25;100.00;101704.13;10404326;28;20037;-78
2023/03/15 18:58:26;;;;;;;6.97;2.70;;;;;;;2.31;100.00;101704.72;10439913;28;20073;-79
2023/03/15 19:03:27;;;;;;;5.20;1.75;;;;;;;2.32;100.00;101698.78;10468123;28;20128;-80
2023/03/15 19:08:27;;;;;;;7.85;2.92;;;;;;;2.25;100.00;101700.66;10439707;28;20094;-79
2023/03/15 19:13:28;;;;;;;2.97;1.77;;;;;;;2.14;100.00;101687.66;10446614;28;20064;-79
2023/03/15 19:18:31;;;;;;;3.20;1.73;;;;;;;2.04;100.00;101695.28;10434054;28;20033;-79
2023/03/15 19:23:33;;;;;;;4.10;1.92;;;;;;;1.96;100.00;101696.22;10477645;28;20044;-79
2023/03/15 19:28:33;;;;;;;7.03;2.95;;;;;;;1.97;100.00;101693.78;10408712;28;20044;-79
2023/03/15 19:33:34;;;;;;;7.47;3.72;;;;;;;1.99;100.00;101697.41;10455200;28;20068;-79
2023/03/15 19:38:35;;;;;;;9.43;3.88;;;;;;;1.95;100.00;101700.47;10472229;28;20033;-80
2023/03/15 19:43:37;;;;;;;6.93;3.83;;;;;;;2.01;100.00;101692.41;10478550;28;20033;-79
2023/03/15 19:48:37;;;;;;;8.85;3.17;;;;;;;2.11;100.00;101696.75;10423825;28;20040;-80
2023/03/15 19:53:38;;;;;;;11.40;3.53;;;;;;;2.03;100.00;101691.78;10447171;28;20035;-80
2023/03/15 19:58:38;;;;;;;5.93;3.30;;;;;;;1.93;100.00;101689.06;10406534;28;20047;-79
2023/03/15 20:03:39;;;;;;;7.22;4.72;;;;;;;1.86;100.00;101697.94;10404479;28;20051;-79
2023/03/15 20:08:40;;;;;;;9.73;3.90;;;;;;;1.82;100.00;101703.56;10442284;28;20120;-79
2023/03/15 20:13:41;;;;;;;6.72;3.15;;;;;;;1.78;100.00;101697.94;10459828;28;20069;-78
2023/03/15 20:18:41;;;;;;;7.00;3.47;;;;;;;1.64;100.00;101694.94;10440239;28;20123;-79
2023/03/15 20:23:41;;;;;;;10.60;4.05;;;;;;;1.56;100.00;101706.19;10442911;28;20119;-79
2023/03/15 20:28:43;;;;;;;7.82;2.67;;;;;;;1.41;100.00;101700.44;10494057;28;20491;-79
2023/03/15 20:33:44;;;;;;;8.10;2.83;;;;;;;1.33;100.00;101707.41;10432196;28;20529;-80
2023/03/15 20:38:45;;;;;;;5.22;3.90;;;;;;;1.29;100.00;101715.63;10464908;28;20033;-80
2023/03/15 20:43:45;;;;;;;8.63;5.07;;;;;;;1.13;100.00;101713.19;10427831;28;20106;-80
2023/03/15 20:48:46;;;;;;;6.35;3.33;;;;;;;1.06;100.00;101703.94;10418770;28;20216;-80
2023/03/15 20:53:46;;;;;;;6.30;4.25;;;;;;;0.98;100.00;101707.41;10440870;28;20068;-80
2023/03/15 20:58:47;;;;;;;9.15;5.25;;;;;;;0.85;100.00;101705.28;10442900;28;20067;-81
2023/03/15 21:03:48;;;;;;;9.32;4.35;;;;;;;0.93;100.00;101696.66;10443393;28;20080;-81
2023/03/15 21:08:49;;;;;;;7.30;4.30;;;;;;;0.85;100.00;101687.25;10432938;28;20116;-80
2023/03/15 21:13:49;;;;;;;6.38;3.78;;;;;;;0.83;100.00;101681.94;10424568;28;20123;-80
2023/03/15 21:18:51;;;;;;;10.32;4.25;;;;;;;1.10;100.00;101682.84;10422780;28;20037;-78
2023/03/15 21:23:53;;;;;;;10.07;4.25;;;;;;;1.16;100.00;101672.25;10430045;28;20481;-79
2023/03/15 21:28:55;;;;;;;9.93;4.07;;;;;;;1.20;100.00;101678.59;10421918;28;20042;-78
2023/03/15 21:34:01;;;;;;;7.57;4.85;;;;;;;1.04;100.00;101671.94;10391274;28;20043;-79
2023/03/15 21:39:03;;;;;;;8.88;4.63;;;;;;;0.87;100.00;101678.91;10372712;28;20060;-78
2023/03/15 21:44:18;;;;;;;9.18;5.68;;;;;;;0.81;100.00;101670.56;10397460;28;20484;-78
2023/03/15 21:49:20;;;;;;;;;;;;;;;0.88;100.00;101669.53;10441709;28;20393;-78
2023/03/15 21:54:29;;;;;;;8.20;4.90;;;;;;;0.81;100.00;101670.56;10416351;28;19925;-78
2023/03/15 21:59:30;;;;;;;10.52;5.03;;;;;;;0.73;100.00;101671.47;10446817;28;20036;-78
2023/03/15 22:04:32;;;;;;;8.33;5.03;;;;;;;0.76;100.00;101665.72;10442815;28;20053;-78
2023/03/15 22:09:36;;;;;;;10.55;4.43;;;;;;;0.74;100.00;101662.97;10432510;28;20425;-78
2023/03/15 22:14:45;;;;;;;9.60;5.20;;;;;;;0.60;100.00;101659.03;10414488;28;20451;-78
2023/03/15 22:19:48;;;;;;;8.68;5.88;;;;;;;0.61;100.00;101647.97;10480641;28;20074;-79
2023/03/15 22:24:52;;;;;;;9.57;6.05;;;;;;;0.49;100.00;101660.50;10432796;28;20042;-78
2023/03/15 22:29:53;;;;;;;11.20;4.97;;;;;;;0.43;100.00;101657.31;10442908;28;20045;-78
2023/03/15 22:35:00;;;;;;;8.80;4.82;;;;;;;0.43;100.00;101655.66;10413874;28;20048;-78
2023/03/15 22:40:00;;;;;;;7.75;5.72;;;;;;;0.43;100.00;101652.16;10436217;28;20499;-78
2023/03/15 22:45:09;;;;;;;26.52;6.13;;;;;;;0.44;100.00;101646.25;10405225;28;20225;-78
2023/03/15 22:50:18;;;;;;;8.88;4.57;;;;;;;0.36;100.00;101639.44;10370535;28;20044;-78
2023/03/15 22:55:23;;;;;;;9.93;4.53;;;;;;;0.26;100.00;101645.31;10437229;28;20041;-78
2023/03/15 23:00:33;;;;;;;8.10;5.32;;;;;;;0.10;100.00;101645.41;10439178;28;20056;-78